Time;durP1;ratioP1;P1;durP2;ratioP2;P2;SDS_P1;SDS_P2;PMS_P1;PMS_P2;Temp;Humidity;BMP_temperature;BMP_pressure;BME280_temperature;BME280_humidity;BME280_pressure;Samples;Min_cycle;Max_cycle;Signal;HPM_P1;HPM_P2
2022/01/17 00:01:05;;;;;;;61.83;27.60;;;5.80;99.90;;;;;;5036486;28;20470;-70
2022/01/17 00:03:32;;;;;;;60.20;28.60;;;5.80;99.90;;;;;;5036263;28;20959;-69
2022/01/17 00:05:59;;;;;;;55.03;27.03;;;5.80;99.90;;;;;;5036221;28;20461;-70
2022/01/17 00:08:26;;;;;;;59.20;25.77;;;5.80;99.90;;;;;;5037291;28;20442;-70
2022/01/17 00:10:53;;;;;;;52.33;25.53;;;5.80;99.90;;;;;;5036148;28;20442;-70
2022/01/17 00:13:25;;;;;;;50.27;26.70;;;5.80;99.90;;;;;;5036364;28;20442;-70
2022/01/17 00:15:57;;;;;;;51.60;26.60;;;5.80;99.90;;;;;;5036641;28;20423;-70
2022/01/17 00:18:41;;;;;;;60.60;27.10;;;5.80;99.90;;;;;;5036393;28;20438;-70
2022/01/17 00:21:08;;;;;;;55.60;27.70;;;5.80;99.90;;;;;;5036188;28;20462;-70
2022/01/17 00:23:34;;;;;;;63.90;27.10;;;5.70;99.90;;;;;;5036086;28;20450;-69
2022/01/17 00:26:01;;;;;;;54.07;26.87;;;5.80;99.90;;;;;;5036043;28;20454;-69
2022/01/17 00:28:28;;;;;;;50.30;25.90;;;5.70;99.90;;;;;;5036059;28;20450;-69
2022/01/17 00:30:56;;;;;;;57.30;27.03;;;5.80;99.90;;;;;;5036039;28;20469;-69
2022/01/17 00:33:23;;;;;;;63.77;30.30;;;5.80;99.90;;;;;;5035865;28;20442;-69
2022/01/17 00:35:50;;;;;;;63.30;29.00;;;5.80;99.90;;;;;;5035940;28;20446;-70
2022/01/17 00:38:16;;;;;;;64.67;30.53;;;5.80;99.90;;;;;;5035933;28;20451;-70
2022/01/17 00:40:44;;;;;;;61.10;29.60;;;5.80;99.90;;;;;;5035438;28;20814;-70
2022/01/17 00:43:12;;;;;;;65.93;31.10;;;5.80;99.90;;;;;;5035804;28;20446;-70
2022/01/17 00:45:41;;;;;;;58.77;30.40;;;5.80;99.90;;;;;;5035370;28;20477;-69
2022/01/17 00:48:09;;;;;;;64.53;30.97;;;5.80;99.90;;;;;;5035654;28;20482;-69
2022/01/17 00:50:38;;;;;;;64.80;31.43;;;5.80;99.90;;;;;;5035608;28;20447;-70
2022/01/17 00:53:05;;;;;;;76.67;33.33;;;5.70;99.90;;;;;;5035613;28;20445;-70
2022/01/17 00:55:33;;;;;;;66.93;31.77;;;5.80;99.90;;;;;;5035422;28;20482;-69
2022/01/17 00:58:01;;;;;;;77.10;32.93;;;5.80;99.90;;;;;;5035613;28;20501;-70
2022/01/17 01:00:28;;;;;;;73.17;32.37;;;5.80;99.90;;;;;;5035075;28;20446;-70
2022/01/17 01:02:55;;;;;;;80.03;34.10;;;5.70;99.90;;;;;;5035309;28;20486;-70
2022/01/17 01:05:23;;;;;;;76.50;35.67;;;5.70;99.90;;;;;;5035310;28;20507;-70
2022/01/17 01:07:53;;;;;;;87.50;33.53;;;5.80;99.90;;;;;;5035291;28;20450;-70
2022/01/17 01:10:20;;;;;;;80.90;34.63;;;5.70;99.90;;;;;;5035278;28;20528;-70
2022/01/17 01:12:49;;;;;;;85.67;35.83;;;5.70;99.90;;;;;;5035224;28;20450;-70
2022/01/17 01:15:21;;;;;;;79.00;34.50;;;5.70;99.90;;;;;;5035128;28;20467;-70
2022/01/17 01:17:51;;;;;;;78.73;33.60;;;5.80;99.90;;;;;;5035977;28;20441;-70
2022/01/17 01:20:31;;;;;;;84.43;35.03;;;5.80;99.90;;;;;;5035088;28;20431;-70
2022/01/17 01:28:43;;;;;;;75.10;32.80;;;5.90;99.90;;;;;;4974237;28;20817;-70
2022/01/17 01:31:14;;;;;;;76.40;33.67;;;5.90;99.90;;;;;;5007958;28;20450;-70
2022/01/17 01:33:48;;;;;;;75.97;31.17;;;5.80;99.90;;;;;;5034764;28;20521;-69
2022/01/17 01:36:20;;;;;;;72.30;34.20;;;5.80;99.90;;;;;;5034841;28;20430;-69
2022/01/17 01:38:48;;;;;;;71.80;33.87;;;5.80;99.90;;;;;;5034744;28;20463;-70
2022/01/17 01:41:15;;;;;;;95.77;36.10;;;5.90;99.90;;;;;;5034604;28;20442;-70
2022/01/17 01:43:41;;;;;;;95.60;37.13;;;5.80;99.90;;;;;;5034533;28;20450;-69
2022/01/17 01:46:10;;;;;;;91.37;35.07;;;5.90;99.90;;;;;;5034260;28;20938;-70
2022/01/17 01:48:37;;;;;;;93.77;38.10;;;5.90;99.90;;;;;;5034525;28;20921;-70
2022/01/17 01:51:04;;;;;;;87.43;36.27;;;5.90;99.90;;;;;;5034471;28;20476;-70
2022/01/17 01:53:31;;;;;;;92.97;37.47;;;5.80;99.90;;;;;;5033963;28;20946;-70
2022/01/17 01:55:59;;;;;;;95.37;40.23;;;5.90;99.90;;;;;;5034459;28;20434;-70
2022/01/17 01:58:27;;;;;;;88.27;38.23;;;5.90;99.90;;;;;;5034391;28;20482;-70
2022/01/17 02:00:55;;;;;;;89.50;39.50;;;5.90;99.90;;;;;;5033951;28;21068;-70
2022/01/17 02:03:22;;;;;;;86.90;37.40;;;6.00;99.90;;;;;;5034151;28;20485;-70
2022/01/17 02:05:49;;;;;;;84.80;38.73;;;6.00;99.90;;;;;;5034161;28;20458;-70
2022/01/17 02:08:16;;;;;;;99.53;39.20;;;6.00;99.90;;;;;;5033904;28;20446;-70
2022/01/17 02:10:43;;;;;;;85.70;37.33;;;6.00;99.90;;;;;;5034122;28;20454;-70
2022/01/17 02:13:11;;;;;;;92.87;40.23;;;6.00;99.90;;;;;;5033283;28;20450;-70
2022/01/17 02:15:40;;;;;;;93.00;38.07;;;6.00;99.90;;;;;;5033634;28;21016;-69
2022/01/17 02:18:08;;;;;;;93.40;38.20;;;6.10;99.90;;;;;;5034026;28;20447;-70
2022/01/17 02:20:42;;;;;;;84.40;37.33;;;6.10;99.90;;;;;;5033770;28;20451;-70
2022/01/17 02:23:10;;;;;;;97.37;39.97;;;6.20;99.90;;;;;;5033953;28;20473;-70
2022/01/17 02:25:37;;;;;;;90.47;37.97;;;6.20;99.90;;;;;;5033874;28;20864;-69
2022/01/17 02:28:04;;;;;;;80.93;34.33;;;6.20;99.90;;;;;;5033852;28;20451;-70
2022/01/17 02:30:32;;;;;;;85.57;36.77;;;6.20;99.90;;;;;;5033462;28;20820;-70
2022/01/17 02:32:59;;;;;;;70.03;33.67;;;6.20;99.90;;;;;;5033449;28;21046;-70
2022/01/17 02:35:26;;;;;;;91.93;36.93;;;6.20;99.90;;;;;;5033318;28;20843;-70
2022/01/17 02:37:55;;;;;;;75.43;34.80;;;6.20;99.90;;;;;;5033708;28;20458;-70
2022/01/17 02:40:22;;;;;;;81.17;36.07;;;6.20;99.90;;;;;;5033589;28;20457;-70
2022/01/17 02:42:51;;;;;;;73.80;33.90;;;6.30;99.90;;;;;;5033559;28;20513;-70
2022/01/17 02:45:31;;;;;;;81.73;38.20;;;6.30;99.90;;;;;;5033173;28;20801;-69
2022/01/17 02:47:59;;;;;;;81.40;34.97;;;6.30;99.90;;;;;;5033666;28;20430;-70
2022/01/17 02:50:25;;;;;;;80.23;35.37;;;6.30;99.90;;;;;;5033519;28;20796;-69
2022/01/17 02:52:58;;;;;;;84.77;37.30;;;6.30;99.90;;;;;;5033182;28;20810;-70
2022/01/17 02:55:25;;;;;;;77.07;36.87;;;6.30;99.90;;;;;;5033282;28;20481;-69
2022/01/17 02:57:51;;;;;;;90.77;38.20;;;6.30;99.90;;;;;;5033450;28;20529;-70
2022/01/17 03:00:19;;;;;;;80.00;35.43;;;6.30;99.90;;;;;;5033362;28;20455;-70
2022/01/17 03:02:48;;;;;;;76.80;36.60;;;6.30;99.90;;;;;;5033308;28;20485;-70
2022/01/17 03:05:16;;;;;;;76.87;36.43;;;6.30;99.90;;;;;;5033284;28;20471;-70
2022/01/17 03:07:42;;;;;;;80.40;36.97;;;6.30;99.90;;;;;;5033272;28;20442;-70
2022/01/17 03:10:19;;;;;;;76.20;35.13;;;6.30;99.90;;;;;;5033286;28;20453;-70
2022/01/17 03:12:46;;;;;;;81.90;37.43;;;6.40;99.90;;;;;;5033331;28;20434;-70
2022/01/17 03:15:13;;;;;;;77.67;37.20;;;6.30;99.90;;;;;;5033257;28;20466;-70
2022/01/17 03:17:40;;;;;;;87.20;36.43;;;6.30;99.90;;;;;;5032873;28;20948;-70
2022/01/17 03:20:08;;;;;;;80.40;37.43;;;6.30;99.90;;;;;;5033212;28;20537;-70
2022/01/17 03:22:35;;;;;;;74.33;36.47;;;6.40;99.90;;;;;;5033227;28;20467;-70
2022/01/17 03:25:02;;;;;;;81.73;39.40;;;6.40;99.90;;;;;;5035617;28;20520;-69
2022/01/17 03:27:30;;;;;;;68.03;33.00;;;6.40;99.90;;;;;;5037281;28;20457;-69
2022/01/17 03:29:57;;;;;;;84.23;35.43;;;6.40;99.90;;;;;;5036947;28;20825;-69
2022/01/17 03:32:24;;;;;;;82.77;35.37;;;6.40;99.90;;;;;;5036760;28;20938;-70
2022/01/17 03:34:51;;;;;;;73.03;33.67;;;6.40;99.90;;;;;;5037164;28;20473;-69
2022/01/17 03:37:17;;;;;;;58.80;31.60;;;6.40;99.90;;;;;;5036975;28;20446;-69
2022/01/17 03:39:44;;;;;;;74.93;34.33;;;6.40;99.90;;;;;;5036978;28;20451;-69
2022/01/17 03:42:11;;;;;;;68.37;33.67;;;6.50;99.90;;;;;;5036820;28;20482;-70
2022/01/17 03:44:39;;;;;;;65.97;34.03;;;6.40;99.90;;;;;;5036855;28;20496;-69
2022/01/17 03:47:06;;;;;;;65.07;30.90;;;6.40;99.90;;;;;;5036486;28;20965;-69
2022/01/17 03:49:33;;;;;;;70.43;34.17;;;6.40;99.90;;;;;;5036859;28;20426;-69
2022/01/17 03:51:59;;;;;;;69.90;35.53;;;6.30;99.90;;;;;;5036471;28;21050;-69
2022/01/17 03:54:26;;;;;;;65.47;33.37;;;6.40;99.90;;;;;;5036321;28;20474;-69
2022/01/17 03:56:53;;;;;;;67.23;32.60;;;6.30;99.90;;;;;;5036608;28;20446;-69
2022/01/17 03:59:20;;;;;;;61.33;32.37;;;6.30;99.90;;;;;;5036239;28;20934;-69
2022/01/17 04:01:48;;;;;;;65.63;33.23;;;6.30;99.90;;;;;;5036425;28;20454;-69
2022/01/17 04:04:14;;;;;;;62.03;31.33;;;6.30;99.90;;;;;;5036116;28;20817;-69
2022/01/17 04:06:41;;;;;;;57.10;30.63;;;6.30;99.90;;;;;;5036075;28;20449;-69
2022/01/17 04:09:08;;;;;;;63.33;31.33;;;6.20;99.90;;;;;;5036394;28;20808;-69
2022/01/17 04:11:36;;;;;;;65.63;30.97;;;6.20;99.90;;;;;;5036350;28;20446;-69
2022/01/17 04:14:03;;;;;;;60.13;29.83;;;6.10;99.90;;;;;;5035876;28;21082;-69
2022/01/17 04:16:30;;;;;;;68.60;33.77;;;6.10;99.90;;;;;;5035825;28;20945;-70
2022/01/17 04:18:58;;;;;;;59.07;30.43;;;6.10;99.90;;;;;;5036133;28;20457;-70
2022/01/17 04:21:30;;;;;;;64.60;33.60;;;6.10;99.90;;;;;;5035926;28;20877;-70
2022/01/17 04:23:56;;;;;;;59.90;30.00;;;6.10;99.90;;;;;;5036144;28;20525;-69
2022/01/17 04:26:23;;;;;;;56.73;31.10;;;6.10;99.90;;;;;;5036057;28;20458;-69
2022/01/17 04:28:50;;;;;;;67.13;34.70;;;6.10;99.90;;;;;;5036023;28;20454;-69
2022/01/17 04:31:17;;;;;;;69.50;33.10;;;6.00;99.90;;;;;;5035656;28;20815;-69
2022/01/17 04:33:44;;;;;;;64.77;33.57;;;6.00;99.90;;;;;;5035870;28;20474;-69
2022/01/17 04:36:12;;;;;;;64.87;34.00;;;6.10;99.90;;;;;;5035049;28;20446;-69
2022/01/17 04:38:39;;;;;;;60.67;32.77;;;6.10;99.90;;;;;;5035885;28;20438;-69
2022/01/17 04:41:13;;;;;;;71.63;34.13;;;6.10;99.90;;;;;;5035886;28;20457;-70
2022/01/17 04:43:58;;;;;;;69.03;32.93;;;6.10;99.90;;;;;;5035350;28;20461;-69
2022/01/17 04:46:25;;;;;;;61.63;31.50;;;6.20;99.90;;;;;;5036454;28;20482;-69
2022/01/17 04:48:52;;;;;;;66.13;32.87;;;6.20;99.90;;;;;;5035464;28;20985;-69
2022/01/17 04:51:20;;;;;;;58.57;31.37;;;6.20;99.90;;;;;;5035692;28;20439;-69
2022/01/17 04:54:02;;;;;;;68.00;31.57;;;6.20;99.90;;;;;;5035140;28;20848;-69
2022/01/17 04:56:29;;;;;;;64.10;30.90;;;6.30;99.90;;;;;;5035541;28;20450;-69
2022/01/17 04:58:56;;;;;;;61.27;32.80;;;6.20;99.90;;;;;;5035467;28;20487;-69
2022/01/17 05:01:22;;;;;;;66.47;30.80;;;6.30;99.90;;;;;;5035325;28;20451;-69
2022/01/17 05:03:49;;;;;;;59.17;30.17;;;6.20;99.90;;;;;;5034898;28;21021;-69
2022/01/17 05:06:16;;;;;;;60.17;31.67;;;6.30;99.90;;;;;;5035048;28;20446;-70
2022/01/17 05:08:44;;;;;;;58.00;31.20;;;6.30;99.90;;;;;;5034988;28;20969;-68
2022/01/17 05:11:10;;;;;;;59.57;31.53;;;6.30;99.90;;;;;;5035292;28;20447;-69
2022/01/17 05:13:44;;;;;;;60.03;30.33;;;6.20;99.90;;;;;;5035243;28;20807;-69
2022/01/17 05:16:11;;;;;;;60.40;29.10;;;6.30;99.90;;;;;;5034918;28;20442;-69
2022/01/17 05:21:22;;;;;;;51.93;27.23;;;6.30;99.90;;;;;;5035177;28;20925;-70
2022/01/17 05:23:50;;;;;;;52.30;28.77;;;6.30;99.90;;;;;;5034556;28;21063;-70
2022/01/17 05:26:17;;;;;;;47.00;26.43;;;6.40;99.90;;;;;;5034983;28;20453;-69
2022/01/17 05:28:44;;;;;;;57.40;25.80;;;6.40;99.90;;;;;;5034901;28;20442;-70
2022/01/17 05:31:10;;;;;;;52.90;26.47;;;6.30;99.90;;;;;;5034868;28;20492;-70
2022/01/17 05:33:37;;;;;;;52.00;27.17;;;6.30;99.90;;;;;;5034741;28;20449;-69
2022/01/17 05:36:04;;;;;;;52.80;25.90;;;6.40;99.90;;;;;;5034769;28;20454;-69
2022/01/17 05:38:31;;;;;;;47.50;24.70;;;6.30;99.90;;;;;;5034539;28;20446;-69
2022/01/17 05:40:59;;;;;;;47.27;25.17;;;6.30;99.90;;;;;;5034744;28;20449;-70
2022/01/17 05:43:25;;;;;;;40.97;24.90;;;6.40;99.90;;;;;;5034609;28;20478;-69
2022/01/17 05:45:52;;;;;;;44.20;24.07;;;6.40;99.90;;;;;;5034698;28;20437;-69
2022/01/17 05:48:19;;;;;;;54.43;25.60;;;6.40;99.90;;;;;;5034496;28;20453;-70
2022/01/17 05:50:46;;;;;;;44.23;23.10;;;6.40;99.90;;;;;;5034620;28;20896;-70
2022/01/17 05:53:14;;;;;;;47.53;25.23;;;6.40;99.90;;;;;;5034429;28;20446;-70
2022/01/17 05:55:41;;;;;;;47.90;24.20;;;6.40;99.90;;;;;;5034012;28;20986;-69
2022/01/17 05:58:09;;;;;;;42.10;24.63;;;6.40;99.90;;;;;;5034471;28;20442;-70
2022/01/17 06:00:36;;;;;;;41.73;26.43;;;6.30;99.90;;;;;;5034350;28;20458;-70
2022/01/17 06:03:02;;;;;;;41.70;23.17;;;6.30;99.90;;;;;;5034235;28;20489;-70
2022/01/17 06:05:29;;;;;;;41.93;24.53;;;6.30;99.90;;;;;;5033910;28;20842;-70
2022/01/17 06:07:56;;;;;;;47.20;24.20;;;6.40;99.90;;;;;;5034268;28;20435;-70
2022/01/17 06:10:23;;;;;;;44.07;23.23;;;6.40;99.90;;;;;;5034139;28;20449;-69
2022/01/17 06:12:50;;;;;;;46.83;23.47;;;6.40;99.90;;;;;;5034107;28;20450;-69
2022/01/17 06:15:18;;;;;;;42.30;24.30;;;6.50;99.90;;;;;;5034021;28;20473;-69
2022/01/17 06:17:45;;;;;;;46.30;25.90;;;6.50;99.90;;;;;;5033802;28;20949;-69
2022/01/17 06:20:13;;;;;;;41.03;23.07;;;6.50;99.90;;;;;;5033993;28;20451;-70
2022/01/17 06:22:39;;;;;;;54.13;25.43;;;6.40;99.90;;;;;;5034043;28;20489;-70
2022/01/17 06:25:07;;;;;;;46.33;25.20;;;6.50;99.90;;;;;;5033858;28;20489;-70
2022/01/17 06:27:34;;;;;;;44.20;26.17;;;6.50;99.90;;;;;;5033790;28;20469;-70
2022/01/17 06:30:01;;;;;;;49.93;26.40;;;6.50;99.90;;;;;;5033468;28;20968;-69
2022/01/17 06:32:30;;;;;;;53.00;26.73;;;6.50;99.90;;;;;;5033793;28;20454;-69
2022/01/17 06:34:58;;;;;;;48.63;26.87;;;6.50;99.90;;;;;;5033692;28;20462;-68
2022/01/17 06:37:25;;;;;;;49.50;28.37;;;6.50;99.90;;;;;;5033770;28;20430;-69
2022/01/17 06:39:53;;;;;;;46.93;26.73;;;6.50;99.90;;;;;;5033608;28;20837;-69
2022/01/17 06:42:20;;;;;;;53.83;26.10;;;6.50;99.90;;;;;;5033521;28;20540;-69
2022/01/17 06:44:47;;;;;;;53.23;28.47;;;6.50;99.90;;;;;;5033319;28;20490;-69
2022/01/17 06:47:13;;;;;;;45.30;25.43;;;6.50;99.90;;;;;;5033467;28;20454;-69
2022/01/17 06:49:42;;;;;;;50.63;25.80;;;6.50;99.90;;;;;;5033077;28;20950;-69
2022/01/17 06:52:09;;;;;;;48.03;26.23;;;6.50;99.90;;;;;;5033430;28;20447;-69
2022/01/17 06:54:35;;;;;;;47.10;28.53;;;6.60;99.90;;;;;;5033086;28;20485;-69
2022/01/17 06:57:02;;;;;;;46.20;26.30;;;6.50;99.90;;;;;;5033291;28;20449;-69
2022/01/17 06:59:29;;;;;;;47.47;25.70;;;6.60;99.90;;;;;;5032823;28;20621;-69
2022/01/17 07:01:56;;;;;;;47.80;26.63;;;6.50;99.90;;;;;;5033299;28;20553;-69
2022/01/17 07:04:23;;;;;;;50.87;25.90;;;6.50;99.90;;;;;;5032888;28;20864;-69
2022/01/17 07:06:51;;;;;;;46.33;25.90;;;6.50;99.90;;;;;;5032879;28;20831;-69
2022/01/17 07:09:19;;;;;;;47.53;26.30;;;6.50;99.90;;;;;;5033230;28;20453;-69
2022/01/17 07:11:46;;;;;;;54.53;26.40;;;6.50;99.90;;;;;;5034099;28;20450;-70
2022/01/17 07:14:13;;;;;;;50.03;27.73;;;6.50;99.90;;;;;;5032922;28;20962;-69
2022/01/17 07:16:41;;;;;;;53.00;28.00;;;6.50;99.90;;;;;;5033220;28;20451;-70
2022/01/17 07:19:08;;;;;;;46.53;26.17;;;6.40;99.90;;;;;;5034040;28;20808;-69
2022/01/17 07:21:36;;;;;;;54.23;27.17;;;6.40;99.90;;;;;;5033199;28;20450;-69
2022/01/17 07:24:05;;;;;;;48.43;26.80;;;6.50;99.90;;;;;;5033082;28;20486;-70
2022/01/17 07:26:32;;;;;;;52.60;25.87;;;6.50;99.90;;;;;;5033209;28;20434;-69
2022/01/17 07:28:58;;;;;;;49.87;27.10;;;6.50;99.90;;;;;;5033683;28;20446;-69
2022/01/17 07:31:25;;;;;;;59.47;29.00;;;6.50;99.90;;;;;;5033069;28;20454;-69
2022/01/17 07:33:52;;;;;;;52.43;28.43;;;6.50;99.90;;;;;;5033497;28;20470;-69
2022/01/17 07:36:20;;;;;;;59.13;32.80;;;6.50;99.90;;;;;;5032757;28;20442;-70
2022/01/17 07:38:47;;;;;;;51.87;27.93;;;6.40;99.90;;;;;;5032917;28;20474;-69
2022/01/17 07:41:16;;;;;;;53.90;29.30;;;6.40;99.90;;;;;;5032927;28;20453;-69
2022/01/17 07:43:44;;;;;;;52.27;26.30;;;6.40;99.90;;;;;;5032975;28;22499;-69
2022/01/17 07:46:19;;;;;;;50.33;27.50;;;6.50;99.90;;;;;;5032933;28;20446;-69
2022/01/17 07:49:03;;;;;;;51.47;26.00;;;6.50;99.90;;;;;;5032661;28;20435;-69
2022/01/17 07:51:30;;;;;;;51.43;30.33;;;6.50;99.90;;;;;;5033763;28;20517;-69
2022/01/17 07:53:58;;;;;;;51.60;27.07;;;6.50;99.90;;;;;;5032482;28;20995;-69
2022/01/17 07:56:27;;;;;;;54.33;27.43;;;6.50;99.90;;;;;;5032972;28;20450;-69
2022/01/17 07:58:53;;;;;;;52.67;26.70;;;6.50;99.90;;;;;;5032459;28;20546;-69
2022/01/17 08:01:20;;;;;;;50.30;27.87;;;6.50;99.90;;;;;;5032798;28;20457;-69
2022/01/17 08:03:47;;;;;;;52.87;28.00;;;6.50;99.90;;;;;;5032594;28;20493;-69
2022/01/17 08:06:14;;;;;;;51.33;26.83;;;6.50;99.90;;;;;;5032752;28;20446;-70
2022/01/17 08:08:40;;;;;;;47.50;25.97;;;6.40;99.90;;;;;;5032729;28;20447;-69
2022/01/17 08:11:07;;;;;;;50.63;27.10;;;6.50;99.90;;;;;;5033380;28;20430;-69
2022/01/17 08:13:35;;;;;;;49.77;28.43;;;6.50;99.90;;;;;;5036259;28;20438;-68
2022/01/17 08:16:03;;;;;;;51.90;26.17;;;6.50;99.90;;;;;;5036281;28;20446;-69
2022/01/17 08:18:30;;;;;;;49.00;27.30;;;6.50;99.90;;;;;;5037071;28;20504;-69
2022/01/17 08:20:58;;;;;;;56.67;27.83;;;6.50;99.90;;;;;;5036213;28;20457;-68
2022/01/17 08:23:25;;;;;;;54.67;27.53;;;6.50;99.90;;;;;;5035714;28;20485;-68
2022/01/17 08:25:52;;;;;;;52.33;28.50;;;6.50;99.90;;;;;;5035860;28;20450;-69
2022/01/17 08:28:18;;;;;;;48.40;26.53;;;6.50;99.90;;;;;;5035850;28;20815;-69
2022/01/17 08:30:46;;;;;;;53.50;29.73;;;6.50;99.90;;;;;;5036163;28;20454;-69
2022/01/17 08:33:13;;;;;;;60.23;32.13;;;6.50;99.90;;;;;;5036176;28;20453;-69
2022/01/17 08:35:40;;;;;;;62.40;32.10;;;6.50;99.90;;;;;;5036032;28;20478;-68
2022/01/17 08:38:07;;;;;;;60.10;32.10;;;6.40;99.90;;;;;;5036067;28;20525;-69
2022/01/17 08:40:33;;;;;;;75.23;34.27;;;6.40;99.90;;;;;;5035861;28;20447;-69
2022/01/17 08:43:00;;;;;;;65.27;32.40;;;6.40;99.90;;;;;;5035758;28;20455;-69
2022/01/17 08:45:29;;;;;;;62.83;31.37;;;6.30;99.90;;;;;;5035315;28;20839;-69
2022/01/17 08:47:57;;;;;;;62.03;32.17;;;6.30;99.90;;;;;;5035481;28;20957;-69
2022/01/17 08:50:24;;;;;;;68.93;33.90;;;6.30;99.90;;;;;;5035747;28;20442;-69
2022/01/17 08:52:50;;;;;;;74.50;36.40;;;6.30;99.90;;;;;;5035665;28;20461;-69
2022/01/17 08:55:18;;;;;;;72.43;35.00;;;6.40;99.90;;;;;;5035293;28;20474;-68
2022/01/17 08:57:44;;;;;;;71.77;35.67;;;6.40;99.90;;;;;;5035549;28;20459;-69
2022/01/17 09:00:15;;;;;;;67.13;32.33;;;6.40;99.90;;;;;;5035470;28;20457;-69
2022/01/17 09:02:42;;;;;;;65.10;33.20;;;6.50;99.90;;;;;;5035662;28;20465;-68
2022/01/17 09:05:11;;;;;;;57.40;32.23;;;6.60;99.90;;;;;;5035246;28;20508;-68
2022/01/17 09:07:37;;;;;;;67.27;34.70;;;6.60;99.90;;;;;;5035322;28;20492;-69
2022/01/17 09:10:05;;;;;;;67.43;35.07;;;6.60;99.90;;;;;;5035386;28;20453;-69
2022/01/17 09:12:32;;;;;;;66.10;34.17;;;6.70;99.90;;;;;;5035187;28;20446;-69
2022/01/17 09:15:00;;;;;;;68.53;34.07;;;6.80;99.90;;;;;;5035156;28;20470;-68
2022/01/17 09:17:26;;;;;;;64.40;33.10;;;6.90;99.90;;;;;;5035146;28;20847;-69
2022/01/17 09:19:53;;;;;;;55.37;33.93;;;6.90;99.90;;;;;;5034773;28;20961;-69
2022/01/17 09:22:21;;;;;;;62.10;32.63;;;6.90;99.90;;;;;;5034743;28;20449;-69
2022/01/17 09:24:48;;;;;;;58.73;31.17;;;7.00;99.90;;;;;;5034988;28;20494;-68
2022/01/17 09:27:16;;;;;;;55.67;32.03;;;7.10;99.90;;;;;;5034627;28;20966;-69
2022/01/17 09:29:43;;;;;;;56.43;31.70;;;7.30;99.90;;;;;;5034944;28;20459;-69
2022/01/17 09:32:10;;;;;;;59.73;34.03;;;7.30;99.90;;;;;;5034554;28;20859;-69
2022/01/17 09:34:36;;;;;;;56.67;32.10;;;7.30;99.90;;;;;;5034790;28;20474;-68
2022/01/17 09:37:04;;;;;;;59.47;33.03;;;7.30;99.90;;;;;;5034803;28;20446;-69
2022/01/17 09:39:32;;;;;;;52.00;33.90;;;7.30;99.90;;;;;;5034456;28;20450;-69
2022/01/17 09:41:58;;;;;;;58.93;33.33;;;7.30;99.90;;;;;;5034421;28;20939;-69
2022/01/17 09:44:25;;;;;;;56.23;33.23;;;7.30;99.90;;;;;;5034490;28;20482;-68
2022/01/17 09:46:55;;;;;;;53.57;31.77;;;7.40;99.90;;;;;;5034703;28;20458;-69
2022/01/17 09:49:25;;;;;;;53.93;32.23;;;7.40;99.90;;;;;;5034605;28;20873;-69
2022/01/17 09:52:13;;;;;;;54.13;30.00;;;7.40;99.90;;;;;;5034433;28;20439;-69
2022/01/17 09:54:43;;;;;;;50.23;30.77;;;7.40;99.90;;;;;;5034020;28;20513;-69
2022/01/17 09:57:12;;;;;;;56.00;33.53;;;7.40;99.90;;;;;;5034444;28;20431;-69
2022/01/17 09:59:41;;;;;;;52.17;30.60;;;7.50;99.90;;;;;;5034332;28;20448;-69
2022/01/17 10:02:09;;;;;;;52.13;34.13;;;7.50;99.90;;;;;;5034251;28;20904;-69
2022/01/17 10:04:37;;;;;;;48.60;31.33;;;7.50;99.90;;;;;;5033989;28;20577;-69
2022/01/17 10:07:05;;;;;;;51.63;31.73;;;7.50;99.90;;;;;;5034204;28;20465;-69
2022/01/17 10:09:33;;;;;;;50.07;31.23;;;7.50;99.90;;;;;;5034217;28;20453;-69
2022/01/17 10:12:10;;;;;;;49.80;27.93;;;7.50;99.90;;;;;;5033794;28;20984;-69
2022/01/17 10:14:39;;;;;;;44.47;31.47;;;7.50;99.90;;;;;;5033743;28;20826;-68
2022/01/17 10:17:08;;;;;;;47.47;29.30;;;7.60;99.90;;;;;;5033835;28;20969;-69
2022/01/17 10:19:35;;;;;;;50.17;30.70;;;7.70;99.90;;;;;;5033982;28;20458;-69
2022/01/17 10:22:09;;;;;;;48.90;29.90;;;7.80;99.90;;;;;;5033933;28;20541;-69
2022/01/17 10:24:43;;;;;;;46.30;28.73;;;7.90;99.90;;;;;;5033737;28;20495;-69
2022/01/17 10:30:24;;;;;;;45.03;27.83;;;7.90;99.90;;;;;;5032665;28;20434;-69
2022/01/17 10:35:37;;;;;;;42.93;28.47;;;7.90;99.90;;;;;;5033127;28;20473;-69
2022/01/17 10:38:07;;;;;;;37.07;27.90;;;8.00;99.90;;;;;;5033367;28;20807;-69
2022/01/17 10:40:37;;;;;;;42.57;27.43;;;8.00;99.90;;;;;;5033358;28;20968;-69
2022/01/17 10:43:07;;;;;;;40.30;26.97;;;8.00;99.90;;;;;;5033757;28;20481;-69
2022/01/17 10:45:41;;;;;;;42.47;29.40;;;8.00;99.90;;;;;;5033482;28;20486;-68
2022/01/17 10:48:08;;;;;;;46.97;29.57;;;8.00;99.90;;;;;;5033307;28;20925;-69
2022/01/17 10:50:37;;;;;;;43.17;29.87;;;8.00;99.90;;;;;;5033465;28;20453;-69
2022/01/17 10:53:06;;;;;;;41.70;28.43;;;8.00;99.90;;;;;;5033509;28;20431;-69
2022/01/17 10:55:34;;;;;;;45.80;28.67;;;7.90;99.90;;;;;;5032946;28;20536;-69
2022/01/17 10:58:03;;;;;;;45.70;29.70;;;7.90;99.90;;;;;;5033478;28;20450;-69
2022/01/17 11:00:34;;;;;;;41.53;28.97;;;7.90;99.90;;;;;;5033552;28;20822;-69
2022/01/17 11:03:03;;;;;;;42.53;29.30;;;7.90;99.90;;;;;;5033364;28;20449;-70
2022/01/17 11:05:32;;;;;;;44.30;28.50;;;7.90;99.90;;;;;;5033231;28;20482;-69
2022/01/17 11:08:02;;;;;;;42.70;30.70;;;7.90;99.90;;;;;;5033336;28;20517;-69
2022/01/17 11:10:31;;;;;;;43.83;29.93;;;7.90;99.90;;;;;;5033270;28;20450;-70
2022/01/17 11:13:01;;;;;;;40.50;28.33;;;7.90;99.90;;;;;;5033253;28;20446;-70
2022/01/17 11:15:33;;;;;;;43.50;29.07;;;8.00;99.90;;;;;;5033238;28;20524;-69
2022/01/17 11:18:04;;;;;;;44.63;28.70;;;8.00;99.90;;;;;;5033334;28;20431;-70
2022/01/17 11:20:33;;;;;;;42.17;29.60;;;8.10;99.90;;;;;;5033287;28;20530;-70
2022/01/17 11:23:01;;;;;;;40.47;28.10;;;8.10;99.90;;;;;;5033147;28;20447;-70
2022/01/17 11:25:31;;;;;;;45.73;28.57;;;8.00;99.90;;;;;;5032946;28;20552;-69
2022/01/17 11:27:59;;;;;;;37.07;27.10;;;7.90;99.90;;;;;;5033174;28;20466;-69
2022/01/17 11:30:26;;;;;;;39.50;28.47;;;8.00;99.90;;;;;;5033102;28;20541;-70
2022/01/17 11:32:56;;;;;;;39.40;26.00;;;8.00;99.90;;;;;;5032832;28;20831;-70
2022/01/17 11:35:25;;;;;;;48.47;29.90;;;7.90;99.90;;;;;;5033013;28;20474;-70
2022/01/17 11:37:55;;;;;;;41.23;29.07;;;7.90;99.90;;;;;;5032816;28;20446;-70
2022/01/17 11:40:28;;;;;;;45.37;27.67;;;7.80;99.90;;;;;;5032983;28;20454;-69
2022/01/17 11:42:56;;;;;;;41.53;27.43;;;7.80;99.90;;;;;;5033019;28;20434;-70
2022/01/17 11:45:38;;;;;;;45.90;28.27;;;7.80;99.90;;;;;;5034262;28;20481;-69
2022/01/17 11:48:18;;;;;;;44.53;27.20;;;7.80;99.90;;;;;;5036861;28;20434;-70
2022/01/17 11:50:48;;;;;;;40.73;27.70;;;7.80;99.90;;;;;;5036828;28;20437;-70
2022/01/17 11:53:44;;;;;;;41.93;28.03;;;7.80;99.90;;;;;;5036721;28;20458;-70
2022/01/17 11:56:15;;;;;;;40.23;26.20;;;7.80;99.90;;;;;;5036724;28;20438;-70
2022/01/17 11:58:45;;;;;;;38.83;27.03;;;7.70;99.90;;;;;;5036705;28;20431;-69
2022/01/17 12:01:18;;;;;;;42.57;26.87;;;7.70;99.90;;;;;;5036584;28;20454;-69
2022/01/17 12:03:48;;;;;;;33.90;24.70;;;7.70;99.90;;;;;;5036225;28;21047;-69
2022/01/17 12:06:22;;;;;;;43.63;27.47;;;7.70;99.90;;;;;;5036541;28;20467;-70
2022/01/17 12:08:49;;;;;;;39.67;25.63;;;7.80;99.90;;;;;;5036098;28;20787;-70
2022/01/17 12:11:27;;;;;;;38.40;25.63;;;7.80;99.90;;;;;;5036408;28;20454;-70
2022/01/17 12:13:58;;;;;;;38.20;24.47;;;7.80;99.90;;;;;;5036051;28;20519;-69
2022/01/17 12:16:36;;;;;;;35.93;24.23;;;7.80;99.90;;;;;;5036123;28;21013;-70
2022/01/17 12:19:12;;;;;;;39.77;24.80;;;7.80;99.90;;;;;;5036305;28;20541;-70
2022/01/17 12:21:41;;;;;;;48.43;25.03;;;7.80;99.90;;;;;;5037260;28;20449;-70
2022/01/17 12:24:31;;;;;;;36.77;24.30;;;7.80;99.90;;;;;;5036137;28;20474;-69
2022/01/17 12:27:10;;;;;;;41.87;22.63;;;7.80;99.90;;;;;;5036120;28;20496;-69
2022/01/17 12:29:42;;;;;;;33.13;22.60;;;7.80;99.90;;;;;;5036091;28;20427;-70
2022/01/17 12:32:20;;;;;;;35.20;23.80;;;7.90;99.90;;;;;;5036061;28;20446;-70
2022/01/17 12:34:49;;;;;;;41.60;24.63;;;7.90;99.90;;;;;;5036001;28;20891;-70
2022/01/17 12:37:34;;;;;;;32.93;23.00;;;8.00;99.90;;;;;;5036073;28;20438;-70
2022/01/17 12:40:13;;;;;;;30.93;22.00;;;8.10;99.90;;;;;;5036034;28;20465;-70
2022/01/17 12:42:55;;;;;;;30.43;21.57;;;8.00;99.90;;;;;;5035906;28;20430;-70
2022/01/17 12:45:24;;;;;;;30.83;20.00;;;8.00;99.90;;;;;;5035723;28;20497;-69
2022/01/17 12:47:51;;;;;;;33.20;21.27;;;8.00;99.90;;;;;;5035757;28;20458;-70
2022/01/17 12:50:21;;;;;;;30.07;20.00;;;8.00;99.90;;;;;;5035702;28;20443;-70
2022/01/17 12:52:50;;;;;;;38.53;20.93;;;8.10;99.90;;;;;;5035709;28;20450;-69
2022/01/17 12:55:16;;;;;;;36.97;21.63;;;8.00;99.90;;;;;;5035218;28;20474;-69
2022/01/17 12:57:44;;;;;;;34.90;21.53;;;8.00;99.90;;;;;;5034567;28;20965;-69